sensor_id;sensor_type;location;lat;lon;timestamp;pressure;altitude;pressure_sealevel;temperature;humidity
20983;BME280;10650;51.528;6.748;2022-07-09T00:00:52;102607.91;;;19.19;68.86
20983;BME280;10650;51.528;6.748;2022-07-09T00:03:20;102607.09;;;19.14;68.99
20983;BME280;10650;51.528;6.748;2022-07-09T00:05:49;102597.19;;;19.13;69.36
20983;BME280;10650;51.528;6.748;2022-07-09T00:08:16;102600.81;;;19.11;69.34
20983;BME280;10650;51.528;6.748;2022-07-09T00:10:46;102608.09;;;19.09;69.46
20983;BME280;10650;51.528;6.748;2022-07-09T00:13:14;102603.59;;;19.06;69.62
20983;BME280;10650;51.528;6.748;2022-07-09T00:15:41;102605.44;;;19.04;69.68
20983;BME280;10650;51.528;6.748;2022-07-09T00:18:11;102604.59;;;19.00;69.97
20983;BME280;10650;51.528;6.748;2022-07-09T00:20:39;102596.50;;;18.99;70.21
20983;BME280;10650;51.528;6.748;2022-07-09T00:23:06;102598.31;;;18.98;70.13
20983;BME280;10650;51.528;6.748;2022-07-09T00:25:34;102595.63;;;18.95;70.26
20983;BME280;10650;51.528;6.748;2022-07-09T00:28:04;102598.38;;;18.92;70.32
20983;BME280;10650;51.528;6.748;2022-07-09T00:30:32;102597.56;;;18.89;70.13
20983;BME280;10650;51.528;6.748;2022-07-09T00:32:59;102598.47;;;18.88;70.47
20983;BME280;10650;51.528;6.748;2022-07-09T00:35:27;102602.97;;;18.85;70.81
20983;BME280;10650;51.528;6.748;2022-07-09T00:37:55;102590.41;;;18.81;70.88
20983;BME280;10650;51.528;6.748;2022-07-09T00:40:23;102592.22;;;18.79;71.15
20983;BME280;10650;51.528;6.748;2022-07-09T00:42:51;102596.78;;;18.76;71.29
20983;BME280;10650;51.528;6.748;2022-07-09T00:45:20;102585.09;;;18.72;71.45
20983;BME280;10650;51.528;6.748;2022-07-09T00:47:48;102586.94;;;18.70;71.59
20983;BME280;10650;51.528;6.748;2022-07-09T00:50:16;102583.34;;;18.68;71.55
20983;BME280;10650;51.528;6.748;2022-07-09T00:52:44;102581.56;;;18.67;71.72
20983;BME280;10650;51.528;6.748;2022-07-09T00:55:13;102583.38;;;18.65;71.77
20983;BME280;10650;51.528;6.748;2022-07-09T00:57:42;102578.94;;;18.61;71.87
20983;BME280;10650;51.528;6.748;2022-07-09T01:00:11;102580.84;;;18.54;72.02
20983;BME280;10650;51.528;6.748;2022-07-09T01:02:40;102583.56;;;18.54;72.17
20983;BME280;10650;51.528;6.748;2022-07-09T01:05:08;102578.16;;;18.53;72.13
20983;BME280;10650;51.528;6.748;2022-07-09T01:07:36;102578.19;;;18.49;72.15
20983;BME280;10650;51.528;6.748;2022-07-09T01:10:04;102572.81;;;18.46;72.51
20983;BME280;10650;51.528;6.748;2022-07-09T01:12:32;102572.00;;;18.41;72.28
20983;BME280;10650;51.528;6.748;2022-07-09T01:15:00;102568.41;;;18.38;72.53
20983;BME280;10650;51.528;6.748;2022-07-09T01:17:28;102575.72;;;18.32;72.79
20983;BME280;10650;51.528;6.748;2022-07-09T01:19:57;102573.97;;;18.28;72.68
20983;BME280;10650;51.528;6.748;2022-07-09T01:22:27;102573.97;;;18.28;73.09
20983;BME280;10650;51.528;6.748;2022-07-09T01:24:56;102574.94;;;18.23;73.36
20983;BME280;10650;51.528;6.748;2022-07-09T01:27:24;102570.41;;;18.22;73.45
20983;BME280;10650;51.528;6.748;2022-07-09T01:29:52;102570.44;;;18.20;73.49
20983;BME280;10650;51.528;6.748;2022-07-09T01:32:20;102568.63;;;18.21;73.41
20983;BME280;10650;51.528;6.748;2022-07-09T01:34:48;102569.56;;;18.20;73.68
20983;BME280;10650;51.528;6.748;2022-07-09T01:37:16;102562.34;;;18.19;73.77
20983;BME280;10650;51.528;6.748;2022-07-09T01:39:45;102566.88;;;18.15;73.66
20983;BME280;10650;51.528;6.748;2022-07-09T01:42:17;102566.03;;;18.13;73.83
20983;BME280;10650;51.528;6.748;2022-07-09T01:44:46;102565.13;;;18.12;74.12
20983;BME280;10650;51.528;6.748;2022-07-09T01:47:14;102558.81;;;18.10;74.16
20983;BME280;10650;51.528;6.748;2022-07-09T01:49:42;102557.94;;;18.10;74.19
20983;BME280;10650;51.528;6.748;2022-07-09T01:52:10;102555.28;;;18.07;74.75
20983;BME280;10650;51.528;6.748;2022-07-09T01:54:38;102549.91;;;18.01;74.67
20983;BME280;10650;51.528;6.748;2022-07-09T01:57:07;102546.34;;;17.98;74.88
20983;BME280;10650;51.528;6.748;2022-07-09T01:59:35;102550.84;;;18.00;74.97
20983;BME280;10650;51.528;6.748;2022-07-09T02:02:03;102543.63;;;18.00;74.99
20983;BME280;10650;51.528;6.748;2022-07-09T02:04:31;102540.06;;;17.96;75.23
20983;BME280;10650;51.528;6.748;2022-07-09T02:06:59;102549.97;;;17.97;75.33
20983;BME280;10650;51.528;6.748;2022-07-09T02:09:27;102541.88;;;17.96;75.16
20983;BME280;10650;51.528;6.748;2022-07-09T02:11:55;102543.72;;;17.94;75.05
20983;BME280;10650;51.528;6.748;2022-07-09T02:14:24;102535.59;;;17.92;75.14
20983;BME280;10650;51.528;6.748;2022-07-09T02:16:52;102538.34;;;17.86;75.51
20983;BME280;10650;51.528;6.748;2022-07-09T02:19:20;102537.50;;;17.83;75.28
20983;BME280;10650;51.528;6.748;2022-07-09T02:21:48;102534.78;;;17.83;75.40
20983;BME280;10650;51.528;6.748;2022-07-09T02:24:16;102540.16;;;17.84;75.73
20983;BME280;10650;51.528;6.748;2022-07-09T02:26:44;102541.09;;;17.81;75.88
20983;BME280;10650;51.528;6.748;2022-07-09T02:29:12;102541.97;;;17.82;76.19
20983;BME280;10650;51.528;6.748;2022-07-09T02:31:41;102538.38;;;17.83;75.90
20983;BME280;10650;51.528;6.748;2022-07-09T02:34:09;102533.84;;;17.87;76.09
20983;BME280;10650;51.528;6.748;2022-07-09T02:36:37;102538.31;;;17.88;76.20
20983;BME280;10650;51.528;6.748;2022-07-09T02:39:04;102539.22;;;17.90;76.07
20983;BME280;10650;51.528;6.748;2022-07-09T02:41:32;102543.69;;;17.92;75.96
20983;BME280;10650;51.528;6.748;2022-07-09T02:44:00;102544.63;;;17.93;75.88
20983;BME280;10650;51.528;6.748;2022-07-09T02:46:28;102536.53;;;17.88;76.37
20983;BME280;10650;51.528;6.748;2022-07-09T02:48:57;102541.94;;;17.88;76.10
20983;BME280;10650;51.528;6.748;2022-07-09T02:51:25;102534.72;;;17.90;76.25
20983;BME280;10650;51.528;6.748;2022-07-09T02:53:53;102534.69;;;17.93;76.38
20983;BME280;10650;51.528;6.748;2022-07-09T02:56:20;102536.47;;;17.96;76.21
20983;BME280;10650;51.528;6.748;2022-07-09T02:58:48;102531.00;;;17.99;76.14
20983;BME280;10650;51.528;6.748;2022-07-09T03:01:16;102543.59;;;18.02;76.36
20983;BME280;10650;51.528;6.748;2022-07-09T03:03:44;102535.47;;;18.03;75.97
20983;BME280;10650;51.528;6.748;2022-07-09T03:06:14;102532.78;;;18.03;76.22
20983;BME280;10650;51.528;6.748;2022-07-09T03:08:41;102539.03;;;18.05;76.10
20983;BME280;10650;51.528;6.748;2022-07-09T03:11:09;102536.34;;;18.05;76.05
20983;BME280;10650;51.528;6.748;2022-07-09T03:13:37;102535.47;;;18.03;76.40
20983;BME280;10650;51.528;6.748;2022-07-09T03:16:05;102531.88;;;18.04;76.50
20983;BME280;10650;51.528;6.748;2022-07-09T03:18:33;102528.25;;;18.04;76.61
20983;BME280;10650;51.528;6.748;2022-07-09T03:21:02;102529.19;;;18.03;76.83
20983;BME280;10650;51.528;6.748;2022-07-09T03:23:31;102530.13;;;17.98;77.46
20983;BME280;10650;51.528;6.748;2022-07-09T03:25:59;102526.50;;;17.98;77.52
20983;BME280;10650;51.528;6.748;2022-07-09T03:28:27;102527.44;;;17.98;77.62
20983;BME280;10650;51.528;6.748;2022-07-09T03:30:54;102516.66;;;17.95;77.77
20983;BME280;10650;51.528;6.748;2022-07-09T03:33:23;102516.66;;;17.95;77.72
20983;BME280;10650;51.528;6.748;2022-07-09T03:35:53;102516.66;;;17.94;77.42
20983;BME280;10650;51.528;6.748;2022-07-09T03:38:21;102517.59;;;17.90;77.70
20983;BME280;10650;51.528;6.748;2022-07-09T03:40:50;102514.91;;;17.87;77.77
20983;BME280;10650;51.528;6.748;2022-07-09T03:43:19;102524.81;;;17.86;78.02
20983;BME280;10650;51.528;6.748;2022-07-09T03:45:47;102515.84;;;17.84;78.22
20983;BME280;10650;51.528;6.748;2022-07-09T03:48:15;102513.16;;;17.83;78.37
20983;BME280;10650;51.528;6.748;2022-07-09T03:50:43;102511.41;;;17.78;78.24
20983;BME280;10650;51.528;6.748;2022-07-09T03:53:11;102504.22;;;17.76;78.17
20983;BME280;10650;51.528;6.748;2022-07-09T03:55:38;102513.19;;;17.76;78.05
20983;BME280;10650;51.528;6.748;2022-07-09T03:58:08;102515.00;;;17.77;78.33
20983;BME280;10650;51.528;6.748;2022-07-09T04:00:35;102509.59;;;17.77;78.58
20983;BME280;10650;51.528;6.748;2022-07-09T04:03:03;102509.63;;;17.76;78.44
20983;BME280;10650;51.528;6.748;2022-07-09T04:05:31;102505.16;;;17.72;78.62
20983;BME280;10650;51.528;6.748;2022-07-09T04:07:59;102499.78;;;17.69;78.51
20983;BME280;10650;51.528;6.748;2022-07-09T04:10:27;102503.38;;;17.69;78.67
20983;BME280;10650;51.528;6.748;2022-07-09T04:12:55;102502.50;;;17.69;78.75
20983;BME280;10650;51.528;6.748;2022-07-09T04:15:24;102498.00;;;17.66;78.93
20983;BME280;10650;51.528;6.748;2022-07-09T04:17:52;102495.31;;;17.66;79.08
20983;BME280;10650;51.528;6.748;2022-07-09T04:20:20;102512.41;;;17.68;79.23
20983;BME280;10650;51.528;6.748;2022-07-09T04:22:48;102521.44;;;17.66;79.24
20983;BME280;10650;51.528;6.748;2022-07-09T04:25:16;102523.22;;;17.68;79.64
20983;BME280;10650;51.528;6.748;2022-07-09T04:27:44;102526.78;;;17.72;79.92
20983;BME280;10650;51.528;6.748;2022-07-09T04:30:11;102526.75;;;17.73;79.97
20983;BME280;10650;51.528;6.748;2022-07-09T04:32:41;102534.81;;;17.78;79.79
20983;BME280;10650;51.528;6.748;2022-07-09T04:35:08;102534.75;;;17.84;79.59
20983;BME280;10650;51.528;6.748;2022-07-09T04:37:36;102539.22;;;17.88;79.39
20983;BME280;10650;51.528;6.748;2022-07-09T04:40:05;102535.56;;;17.97;79.67
20983;BME280;10650;51.528;6.748;2022-07-09T04:42:33;102531.59;;;18.26;79.90
20983;BME280;10650;51.528;6.748;2022-07-09T04:45:01;102538.69;;;19.01;78.37
20983;BME280;10650;51.528;6.748;2022-07-09T04:47:29;102527.94;;;19.98;75.67
20983;BME280;10650;51.528;6.748;2022-07-09T04:49:58;102529.19;;;20.68;72.15
20983;BME280;10650;51.528;6.748;2022-07-09T04:52:26;102533.88;;;21.35;70.45
20983;BME280;10650;51.528;6.748;2022-07-09T04:54:54;102535.22;;;21.87;66.74
20983;BME280;10650;51.528;6.748;2022-07-09T04:57:22;102530.38;;;21.99;66.17
20983;BME280;10650;51.528;6.748;2022-07-09T04:59:50;102536.63;;;22.34;64.49
20983;BME280;10650;51.528;6.748;2022-07-09T05:02:18;102534.44;;;22.46;63.64
20983;BME280;10650;51.528;6.748;2022-07-09T05:04:46;102528.91;;;22.18;63.38
20983;BME280;10650;51.528;6.748;2022-07-09T05:07:15;102525.84;;;21.66;64.20
20983;BME280;10650;51.528;6.748;2022-07-09T05:09:43;102527.94;;;21.19;65.60
20983;BME280;10650;51.528;6.748;2022-07-09T05:12:11;102534.59;;;20.69;66.90
20983;BME280;10650;51.528;6.748;2022-07-09T05:14:38;102533.53;;;20.33;68.18
20983;BME280;10650;51.528;6.748;2022-07-09T05:17:06;102526.72;;;20.15;68.88
20983;BME280;10650;51.528;6.748;2022-07-09T05:19:34;102533.28;;;20.01;69.99
20983;BME280;10650;51.528;6.748;2022-07-09T05:22:02;102532.59;;;19.90;70.58
20983;BME280;10650;51.528;6.748;2022-07-09T05:24:32;102524.59;;;19.84;70.74
20983;BME280;10650;51.528;6.748;2022-07-09T05:26:59;102528.28;;;19.78;71.32
20983;BME280;10650;51.528;6.748;2022-07-09T05:29:30;102530.13;;;19.78;71.67
20983;BME280;10650;51.528;6.748;2022-07-09T05:31:57;102517.94;;;19.52;72.37
20983;BME280;10650;51.528;6.748;2022-07-09T05:34:25;102527.97;;;19.47;72.63
20983;BME280;10650;51.528;6.748;2022-07-09T05:36:53;102527.94;;;19.48;73.25
20983;BME280;10650;51.528;6.748;2022-07-09T05:39:21;102528.56;;;19.64;72.93
20983;BME280;10650;51.528;6.748;2022-07-09T05:41:50;102530.22;;;19.73;72.49
20983;BME280;10650;51.528;6.748;2022-07-09T05:44:18;102527.59;;;19.67;72.58
20983;BME280;10650;51.528;6.748;2022-07-09T05:46:50;102531.03;;;19.77;73.06
20983;BME280;10650;51.528;6.748;2022-07-09T05:49:18;102520.00;;;19.89;72.39
20983;BME280;10650;51.528;6.748;2022-07-09T05:51:46;102519.88;;;19.94;71.97
20983;BME280;10650;51.528;6.748;2022-07-09T05:54:13;102518.13;;;19.91;71.88
20983;BME280;10650;51.528;6.748;2022-07-09T05:56:41;102516.31;;;19.93;71.92
20983;BME280;10650;51.528;6.748;2022-07-09T05:59:11;102508.84;;;20.04;71.72
20983;BME280;10650;51.528;6.748;2022-07-09T06:01:38;102511.28;;;20.17;71.77
20983;BME280;10650;51.528;6.748;2022-07-09T06:04:08;102515.34;;;20.38;71.35
20983;BME280;10650;51.528;6.748;2022-07-09T06:06:37;102508.94;;;20.42;70.42
20983;BME280;10650;51.528;6.748;2022-07-09T06:09:05;102507.88;;;20.49;70.57
20983;BME280;10650;51.528;6.748;2022-07-09T06:11:33;102507.63;;;20.58;69.89
20983;BME280;10650;51.528;6.748;2022-07-09T06:14:01;102513.91;;;20.62;69.84
20983;BME280;10650;51.528;6.748;2022-07-09T06:16:30;102511.94;;;20.70;70.06
20983;BME280;10650;51.528;6.748;2022-07-09T06:18:58;102511.75;;;20.78;69.27
20983;BME280;10650;51.528;6.748;2022-07-09T06:21:27;102513.47;;;20.82;68.71
20983;BME280;10650;51.528;6.748;2022-07-09T06:23:55;102510.81;;;20.79;68.67
20983;BME280;10650;51.528;6.748;2022-07-09T06:26:23;102502.59;;;20.82;68.97
20983;BME280;10650;51.528;6.748;2022-07-09T06:28:51;102508.13;;;20.79;68.51
20983;BME280;10650;51.528;6.748;2022-07-09T06:31:21;102505.41;;;20.79;68.71
20983;BME280;10650;51.528;6.748;2022-07-09T06:33:51;102503.38;;;20.87;68.78
20983;BME280;10650;51.528;6.748;2022-07-09T06:36:25;102508.66;;;20.94;68.88
20983;BME280;10650;51.528;6.748;2022-07-09T06:38:53;102495.88;;;20.97;68.84
20983;BME280;10650;51.528;6.748;2022-07-09T06:41:39;102506.72;;;20.99;68.84
20983;BME280;10650;51.528;6.748;2022-07-09T06:44:07;102502.13;;;21.02;68.31
20983;BME280;10650;51.528;6.748;2022-07-09T06:46:37;102503.75;;;21.09;68.45
20983;BME280;10650;51.528;6.748;2022-07-09T06:49:06;102507.16;;;21.18;68.22
20983;BME280;10650;51.528;6.748;2022-07-09T06:51:34;102502.41;;;21.26;67.63
20983;BME280;10650;51.528;6.748;2022-07-09T06:54:02;102502.88;;;21.43;67.41
20983;BME280;10650;51.528;6.748;2022-07-09T06:56:30;102500.75;;;21.56;67.13
20983;BME280;10650;51.528;6.748;2022-07-09T06:58:57;102514.25;;;21.59;65.43
20983;BME280;10650;51.528;6.748;2022-07-09T07:01:25;102514.03;;;21.67;65.37
20983;BME280;10650;51.528;6.748;2022-07-09T07:03:53;102513.91;;;21.72;64.28
20983;BME280;10650;51.528;6.748;2022-07-09T07:06:23;102532.88;;;21.75;64.96
20983;BME280;10650;51.528;6.748;2022-07-09T07:08:51;102528.50;;;21.68;64.49
20983;BME280;10650;51.528;6.748;2022-07-09T07:11:19;102520.19;;;21.74;64.71
20983;BME280;10650;51.528;6.748;2022-07-09T07:13:47;102515.25;;;21.88;65.25
20983;BME280;10650;51.528;6.748;2022-07-09T07:16:15;102515.47;;;22.12;64.84
20983;BME280;10650;51.528;6.748;2022-07-09T07:18:42;102513.81;;;22.38;63.93
20983;BME280;10650;51.528;6.748;2022-07-09T07:21:11;102509.84;;;22.50;62.28
20983;BME280;10650;51.528;6.748;2022-07-09T07:23:40;102507.09;;;22.51;62.07
20983;BME280;10650;51.528;6.748;2022-07-09T07:26:08;102507.25;;;22.45;61.36
20983;BME280;10650;51.528;6.748;2022-07-09T07:28:35;102506.28;;;22.48;61.68
20983;BME280;10650;51.528;6.748;2022-07-09T07:31:04;102504.06;;;22.29;58.84
20983;BME280;10650;51.528;6.748;2022-07-09T07:33:32;102506.69;;;22.32;59.62
20983;BME280;10650;51.528;6.748;2022-07-09T07:35:59;102508.25;;;22.42;59.66
20983;BME280;10650;51.528;6.748;2022-07-09T07:38:27;102506.81;;;22.59;59.91
20983;BME280;10650;51.528;6.748;2022-07-09T07:40:56;102497.41;;;22.69;59.39
20983;BME280;10650;51.528;6.748;2022-07-09T07:43:24;102506.41;;;22.73;58.80
20983;BME280;10650;51.528;6.748;2022-07-09T07:45:52;102503.47;;;22.79;59.07
20983;BME280;10650;51.528;6.748;2022-07-09T07:48:20;102506.94;;;22.84;59.67
20983;BME280;10650;51.528;6.748;2022-07-09T07:50:48;102501.59;;;22.81;57.99
20983;BME280;10650;51.528;6.748;2022-07-09T07:53:16;102500.88;;;22.74;57.70
20983;BME280;10650;51.528;6.748;2022-07-09T07:55:44;102499.09;;;22.73;57.24
20983;BME280;10650;51.528;6.748;2022-07-09T07:58:13;102492.03;;;22.68;56.95
20983;BME280;10650;51.528;6.748;2022-07-09T08:00:41;102505.78;;;22.63;56.76
20983;BME280;10650;51.528;6.748;2022-07-09T08:03:09;102493.97;;;22.64;57.00
20983;BME280;10650;51.528;6.748;2022-07-09T08:05:37;102504.91;;;22.62;57.42
20983;BME280;10650;51.528;6.748;2022-07-09T08:08:05;102499.78;;;22.52;57.74
20983;BME280;10650;51.528;6.748;2022-07-09T08:10:32;102517.00;;;22.52;57.71
20983;BME280;10650;51.528;6.748;2022-07-09T08:13:03;102504.22;;;22.56;57.75
20983;BME280;10650;51.528;6.748;2022-07-09T08:15:33;102508.06;;;22.49;57.80
20983;BME280;10650;51.528;6.748;2022-07-09T08:18:00;102500.88;;;22.46;58.13
20983;BME280;10650;51.528;6.748;2022-07-09T08:20:28;102503.59;;;22.46;58.26
20983;BME280;10650;51.528;6.748;2022-07-09T08:22:56;102487.13;;;22.19;58.01
20983;BME280;10650;51.528;6.748;2022-07-09T08:25:24;102483.34;;;21.95;58.96
20983;BME280;10650;51.528;6.748;2022-07-09T08:27:52;102487.22;;;22.16;59.76
20983;BME280;10650;51.528;6.748;2022-07-09T08:30:20;102481.88;;;22.44;58.84
20983;BME280;10650;51.528;6.748;2022-07-09T08:32:49;102472.31;;;22.59;58.28
20983;BME280;10650;51.528;6.748;2022-07-09T08:35:17;102465.25;;;22.80;58.23
20983;BME280;10650;51.528;6.748;2022-07-09T08:37:45;102472.66;;;23.04;57.57
20983;BME280;10650;51.528;6.748;2022-07-09T08:40:13;102453.94;;;23.21;57.19
20983;BME280;10650;51.528;6.748;2022-07-09T08:42:41;102459.88;;;23.32;56.51
20983;BME280;10650;51.528;6.748;2022-07-09T08:45:11;102450.50;;;23.41;56.77
20983;BME280;10650;51.528;6.748;2022-07-09T08:47:40;102454.72;;;23.50;56.57
20983;BME280;10650;51.528;6.748;2022-07-09T08:50:10;102456.84;;;23.42;55.74
20983;BME280;10650;51.528;6.748;2022-07-09T08:52:39;102447.78;;;23.41;55.40
20983;BME280;10650;51.528;6.748;2022-07-09T08:55:08;102445.81;;;23.45;55.53
20983;BME280;10650;51.528;6.748;2022-07-09T08:57:36;102445.31;;;23.59;55.38
20983;BME280;10650;51.528;6.748;2022-07-09T09:00:05;102433.91;;;23.73;54.94
20983;BME280;10650;51.528;6.748;2022-07-09T09:02:34;102439.22;;;23.76;54.01
20983;BME280;10650;51.528;6.748;2022-07-09T09:05:10;102440.25;;;23.97;53.69
20983;BME280;10650;51.528;6.748;2022-07-09T09:07:38;102433.19;;;24.15;53.30
20983;BME280;10650;51.528;6.748;2022-07-09T09:10:06;102432.34;;;24.36;52.95
20983;BME280;10650;51.528;6.748;2022-07-09T09:12:34;102431.78;;;24.50;52.08
20983;BME280;10650;51.528;6.748;2022-07-09T09:15:06;102430.94;;;24.48;51.51
20983;BME280;10650;51.528;6.748;2022-07-09T09:17:42;102425.66;;;24.44;51.58
20983;BME280;10650;51.528;6.748;2022-07-09T09:20:12;102422.31;;;24.59;52.09
20983;BME280;10650;51.528;6.748;2022-07-09T09:22:45;102424.31;;;24.78;51.98
20983;BME280;10650;51.528;6.748;2022-07-09T09:25:18;102420.34;;;24.85;50.39
20983;BME280;10650;51.528;6.748;2022-07-09T09:27:52;102429.00;;;24.74;50.64
20983;BME280;10650;51.528;6.748;2022-07-09T09:30:21;102424.09;;;24.82;50.87
20983;BME280;10650;51.528;6.748;2022-07-09T09:32:55;102416.69;;;24.86;49.40
20983;BME280;10650;51.528;6.748;2022-07-09T09:35:26;102412.78;;;24.92;50.18
20983;BME280;10650;51.528;6.748;2022-07-09T09:37:54;102423.44;;;24.98;49.81
20983;BME280;10650;51.528;6.748;2022-07-09T09:40:22;102410.00;;;24.93;49.10
20983;BME280;10650;51.528;6.748;2022-07-09T09:42:51;102410.66;;;24.98;49.73
20983;BME280;10650;51.528;6.748;2022-07-09T09:45:24;102418.63;;;25.04;49.61
20983;BME280;10650;51.528;6.748;2022-07-09T09:47:52;102406.13;;;24.97;49.51
20983;BME280;10650;51.528;6.748;2022-07-09T09:50:22;102407.94;;;24.98;49.63
20983;BME280;10650;51.528;6.748;2022-07-09T09:52:53;102408.41;;;25.08;49.83
20983;BME280;10650;51.528;6.748;2022-07-09T09:55:22;102399.88;;;25.16;49.57
20983;BME280;10650;51.528;6.748;2022-07-09T09:57:51;102406.09;;;25.19;48.94
20983;BME280;10650;51.528;6.748;2022-07-09T10:00:20;102400.06;;;25.11;48.45
20983;BME280;10650;51.528;6.748;2022-07-09T10:02:48;102401.72;;;25.15;49.38
20983;BME280;10650;51.528;6.748;2022-07-09T10:05:16;102406.56;;;25.09;48.50
20983;BME280;10650;51.528;6.748;2022-07-09T10:07:44;102400.63;;;25.19;48.94
20983;BME280;10650;51.528;6.748;2022-07-09T10:10:23;102386.09;;;25.39;48.76
20983;BME280;10650;51.528;6.748;2022-07-09T10:12:51;102389.59;;;25.62;48.26
20983;BME280;10650;51.528;6.748;2022-07-09T10:15:22;102386.28;;;25.74;47.34
20983;BME280;10650;51.528;6.748;2022-07-09T10:17:52;102396.03;;;25.80;47.65
20983;BME280;10650;51.528;6.748;2022-07-09T10:20:29;102393.91;;;25.87;48.55
20983;BME280;10650;51.528;6.748;2022-07-09T10:23:00;102393.63;;;25.93;48.10
20983;BME280;10650;51.528;6.748;2022-07-09T10:25:30;102387.09;;;25.96;47.76
20983;BME280;10650;51.528;6.748;2022-07-09T10:27:58;102387.97;;;25.96;47.41
20983;BME280;10650;51.528;6.748;2022-07-09T10:30:28;102378.97;;;25.94;47.11
20983;BME280;10650;51.528;6.748;2022-07-09T10:33:04;102385.25;;;25.96;47.59
20983;BME280;10650;51.528;6.748;2022-07-09T10:35:40;102383.06;;;26.04;47.01
20983;BME280;10650;51.528;6.748;2022-07-09T10:38:08;102374.13;;;26.01;46.74
20983;BME280;10650;51.528;6.748;2022-07-09T10:40:42;102369.91;;;26.13;47.15
20983;BME280;10650;51.528;6.748;2022-07-09T10:43:11;102370.09;;;26.27;47.06
20983;BME280;10650;51.528;6.748;2022-07-09T10:45:40;102366.16;;;26.33;46.90
20983;BME280;10650;51.528;6.748;2022-07-09T10:48:13;102354.59;;;26.45;46.79
20983;BME280;10650;51.528;6.748;2022-07-09T10:50:51;102349.78;;;26.68;46.67
20983;BME280;10650;51.528;6.748;2022-07-09T10:53:18;102348.03;;;26.84;46.39
20983;BME280;10650;51.528;6.748;2022-07-09T10:55:47;102343.94;;;26.93;44.85
20983;BME280;10650;51.528;6.748;2022-07-09T10:58:16;102344.25;;;26.87;45.02
20983;BME280;10650;51.528;6.748;2022-07-09T11:00:45;102335.31;;;26.83;45.09
20983;BME280;10650;51.528;6.748;2022-07-09T11:03:24;102351.47;;;26.53;45.25
20983;BME280;10650;51.528;6.748;2022-07-09T11:05:56;102357.88;;;26.34;45.73
20983;BME280;10650;51.528;6.748;2022-07-09T11:08:24;102346.91;;;25.96;45.86
20983;BME280;10650;51.528;6.748;2022-07-09T11:10:53;102348.19;;;25.89;46.60
20983;BME280;10650;51.528;6.748;2022-07-09T11:13:31;102343.63;;;25.89;47.01
20983;BME280;10650;51.528;6.748;2022-07-09T11:15:59;102339.19;;;25.87;47.34
20983;BME280;10650;51.528;6.748;2022-07-09T11:18:29;102332.22;;;25.61;46.68
20983;BME280;10650;51.528;6.748;2022-07-09T11:20:57;102339.47;;;25.81;47.79
20983;BME280;10650;51.528;6.748;2022-07-09T11:23:25;102328.03;;;26.11;47.15
20983;BME280;10650;51.528;6.748;2022-07-09T11:25:56;102321.69;;;26.28;46.70
20983;BME280;10650;51.528;6.748;2022-07-09T11:28:25;102318.16;;;26.43;46.77
20983;BME280;10650;51.528;6.748;2022-07-09T11:30:59;102316.00;;;26.13;46.16
20983;BME280;10650;51.528;6.748;2022-07-09T11:33:28;102312.03;;;26.01;46.75
20983;BME280;10650;51.528;6.748;2022-07-09T11:36:16;102320.16;;;25.84;47.70
20983;BME280;10650;51.528;6.748;2022-07-09T11:38:48;102309.28;;;25.63;47.42
20983;BME280;10650;51.528;6.748;2022-07-09T11:41:18;102307.44;;;25.45;48.53
20983;BME280;10650;51.528;6.748;2022-07-09T11:43:47;102312.69;;;25.29;49.94
20983;BME280;10650;51.528;6.748;2022-07-09T11:46:16;102318.06;;;25.11;50.11
20983;BME280;10650;51.528;6.748;2022-07-09T11:48:49;102312.88;;;24.84;51.11
20983;BME280;10650;51.528;6.748;2022-07-09T11:51:25;102312.06;;;24.62;52.51
20983;BME280;10650;51.528;6.748;2022-07-09T11:53:53;102321.69;;;24.48;53.36
20983;BME280;10650;51.528;6.748;2022-07-09T11:56:22;102307.50;;;24.40;52.97
20983;BME280;10650;51.528;6.748;2022-07-09T11:58:50;102313.31;;;24.31;53.83
20983;BME280;10650;51.528;6.748;2022-07-09T12:01:18;102318.03;;;24.27;52.93
20983;BME280;10650;51.528;6.748;2022-07-09T12:03:48;102317.59;;;24.16;52.47
20983;BME280;10650;51.528;6.748;2022-07-09T12:06:16;102314.94;;;24.14;52.54
20983;BME280;10650;51.528;6.748;2022-07-09T12:08:44;102314.28;;;24.08;52.42
20983;BME280;10650;51.528;6.748;2022-07-09T12:11:12;102313.13;;;23.91;52.57
20983;BME280;10650;51.528;6.748;2022-07-09T12:13:41;102314.53;;;23.78;53.20
20983;BME280;10650;51.528;6.748;2022-07-09T12:16:09;102310.09;;;23.75;54.03
20983;BME280;10650;51.528;6.748;2022-07-09T12:18:38;102314.59;;;23.76;54.23
20983;BME280;10650;51.528;6.748;2022-07-09T12:21:07;102331.78;;;23.78;56.57
20983;BME280;10650;51.528;6.748;2022-07-09T12:23:34;102327.69;;;23.19;63.53
20983;BME280;10650;51.528;6.748;2022-07-09T12:26:02;102336.41;;;22.78;66.94
20983;BME280;10650;51.528;6.748;2022-07-09T12:28:30;102338.75;;;22.36;68.98
20983;BME280;10650;51.528;6.748;2022-07-09T12:31:00;102340.63;;;22.05;69.93
20983;BME280;10650;51.528;6.748;2022-07-09T12:33:28;102351.19;;;21.86;71.08
20983;BME280;10650;51.528;6.748;2022-07-09T12:35:55;102343.47;;;21.72;71.12
20983;BME280;10650;51.528;6.748;2022-07-09T12:38:23;102332.84;;;21.63;72.32
20983;BME280;10650;51.528;6.748;2022-07-09T12:40:51;102348.00;;;21.72;72.09
20983;BME280;10650;51.528;6.748;2022-07-09T12:43:19;102345.88;;;21.82;72.67
20983;BME280;10650;51.528;6.748;2022-07-09T12:45:46;102342.34;;;21.80;72.98
20983;BME280;10650;51.528;6.748;2022-07-09T12:48:16;102348.75;;;21.77;72.63
20983;BME280;10650;51.528;6.748;2022-07-09T12:50:43;102341.31;;;21.84;72.92
20983;BME280;10650;51.528;6.748;2022-07-09T12:53:11;102335.63;;;21.91;72.98
20983;BME280;10650;51.528;6.748;2022-07-09T12:55:39;102340.47;;;22.10;73.02
20983;BME280;10650;51.528;6.748;2022-07-09T12:58:27;102328.94;;;22.30;71.93